Time;durP1;ratioP1;P1;durP2;ratioP2;P2;SDS_P1;SDS_P2;PMS_P1;PMS_P2;Temp;Humidity;BMP_temperature;BMP_pressure;BME280_temperature;BME280_humidity;BME280_pressure;Samples;Min_cycle;Max_cycle;Signal;HPM_P1;HPM_P2
2024/03/28 00:01:22;;;;;;;0.50;0.50;;;;;;;10.82;95.99;96184.44;4982957;28;20444;-63
2024/03/28 00:03:47;;;;;;;0.50;0.50;;;;;;;10.76;97.22;96185.22;4998620;28;20061;-63
2024/03/28 00:06:13;;;;;;;0.50;0.50;;;;;;;10.81;98.12;96182.06;4982463;28;20058;-64
2024/03/28 00:08:42;;;;;;;0.50;0.50;;;;;;;10.72;99.18;96162.25;4982935;28;20070;-62
2024/03/28 00:11:08;;;;;;;0.50;0.50;;;;;;;10.79;99.72;96182.44;4982353;28;20055;-65
2024/03/28 00:13:33;;;;;;;0.50;0.50;;;;;;;10.56;100.00;96146.78;4997312;28;20112;-63
2024/03/28 00:16:00;;;;;;;0.50;0.50;;;;;;;10.64;100.00;96173.31;4999113;28;20112;-64
2024/03/28 00:18:26;;;;;;;0.50;0.50;;;;;;;9.84;100.00;96029.94;4981901;28;20050;-63
2024/03/28 00:21:00;;;;;;;0.50;0.50;;;;;;;10.26;100.00;96110.31;4998958;28;20062;-63
2024/03/28 00:23:27;;;;;;;0.50;0.50;;;;;;;10.57;100.00;96153.91;4983141;28;20061;-63
2024/03/28 00:25:58;;;;;;;0.50;0.50;;;;;;;10.25;100.00;96135.63;4982573;28;20529;-63
2024/03/28 00:28:24;;;;;;;0.50;0.50;;;;;;;10.47;100.00;96149.13;4998083;28;20088;-62
2024/03/28 00:30:51;;;;;;;0.50;0.50;;;;;;;10.20;100.00;96116.63;4966059;28;20425;-64
2024/03/28 00:33:17;;;;;;;0.50;0.50;;;;;;;9.88;100.00;96094.34;4998956;28;20066;-63
2024/03/28 00:35:44;;;;;;;0.50;0.50;;;;;;;10.23;100.00;96158.16;4981627;28;20061;-64
2024/03/28 00:38:09;;;;;;;0.50;0.50;;;;;;;10.13;100.00;96150.59;4982357;28;20452;-63
2024/03/28 00:40:37;;;;;;;0.50;0.50;;;;;;;10.19;100.00;96154.59;4981975;28;20065;-63
2024/03/28 00:43:04;;;;;;;0.50;0.50;;;;;;;10.07;100.00;96163.22;4981782;28;20062;-62
2024/03/28 00:45:30;;;;;;;0.50;0.50;;;;;;;10.02;100.00;96165.53;4981564;28;20600;-63
2024/03/28 00:47:56;;;;;;;0.40;0.40;;;;;;;9.91;100.00;96159.94;4998406;28;20058;-63
2024/03/28 00:50:22;;;;;;;0.50;0.50;;;;;;;10.12;100.00;96165.63;4982072;28;20132;-63
2024/03/28 00:52:47;;;;;;;0.50;0.50;;;;;;;10.12;100.00;96149.00;4981351;28;20062;-63
2024/03/28 00:55:13;;;;;;;0.50;0.50;;;;;;;10.20;100.00;96166.44;4994426;28;20139;-63
2024/03/28 00:57:39;;;;;;;0.50;0.50;;;;;;;10.28;100.00;96140.38;4975148;28;20509;-63
2024/03/28 01:00:06;;;;;;;0.50;0.50;;;;;;;10.36;100.00;96169.66;4981945;28;20525;-63
2024/03/28 01:02:31;;;;;;;0.50;0.50;;;;;;;10.61;100.00;96143.63;4981827;28;20058;-64
2024/03/28 01:04:57;;;;;;;0.50;0.50;;;;;;;9.90;100.00;96024.78;4981531;28;20054;-64
2024/03/28 01:07:23;;;;;;;0.43;0.43;;;;;;;10.60;100.00;96108.84;4997812;28;20054;-63
2024/03/28 01:09:50;;;;;;;0.50;0.50;;;;;;;10.56;100.00;96124.63;4982264;28;20057;-65
2024/03/28 01:12:16;;;;;;;0.50;0.50;;;;;;;10.48;100.00;96123.03;4980531;28;20501;-64
2024/03/28 01:14:41;;;;;;;0.50;0.50;;;;;;;10.48;100.00;96094.53;4981361;28;20065;-63
2024/03/28 01:17:07;;;;;;;0.40;0.40;;;;;;;10.24;100.00;96085.00;4981766;28;20061;-63
2024/03/28 01:19:33;;;;;;;0.50;0.50;;;;;;;10.58;100.00;96133.34;4997818;28;20073;-63
2024/03/28 01:21:58;;;;;;;0.50;0.50;;;;;;;10.73;100.00;96112.78;4981743;28;20057;-64
2024/03/28 01:24:24;;;;;;;0.50;0.50;;;;;;;10.73;99.30;96092.63;4981798;28;20050;-64
2024/03/28 01:26:50;;;;;;;0.50;0.50;;;;;;;10.63;99.68;96105.28;4981934;28;20058;-64
2024/03/28 01:29:15;;;;;;;0.50;0.50;;;;;;;10.54;100.00;96118.69;4981282;28;20549;-64
2024/03/28 01:31:41;;;;;;;0.50;0.50;;;;;;;10.50;100.00;96123.44;4964494;28;20050;-65
2024/03/28 01:34:07;;;;;;;0.50;0.50;;;;;;;10.04;100.00;96075.44;4981362;28;20058;-64
2024/03/28 01:36:34;;;;;;;0.50;0.50;;;;;;;10.31;100.00;96112.72;4981287;28;20054;-64
2024/03/28 01:39:00;;;;;;;0.40;0.40;;;;;;;10.17;100.00;96112.66;4981752;28;20053;-65
2024/03/28 01:41:26;;;;;;;0.50;0.50;;;;;;;10.25;100.00;96108.75;4981176;28;20058;-64
2024/03/28 01:43:51;;;;;;;0.43;0.43;;;;;;;10.32;100.00;96114.28;4948064;28;20073;-64
2024/03/28 01:46:17;;;;;;;0.40;0.40;;;;;;;9.94;100.00;96059.56;4961506;28;20066;-64
2024/03/28 01:48:45;;;;;;;0.50;0.50;;;;;;;10.44;100.00;96111.16;4961557;28;20058;-64
2024/03/28 01:51:11;;;;;;;0.47;0.47;;;;;;;10.49;100.00;96099.72;4961170;28;20061;-64
2024/03/28 01:53:37;;;;;;;0.40;0.40;;;;;;;10.45;100.00;96107.22;4962152;28;20063;-64
2024/03/28 01:56:04;;;;;;;0.50;0.50;;;;;;;10.36;100.00;96117.06;4961861;28;20054;-63
2024/03/28 01:58:31;;;;;;;0.47;0.47;;;;;;;10.44;100.00;96105.63;4961903;28;20210;-64
2024/03/28 02:00:58;;;;;;;0.50;0.50;;;;;;;10.57;100.00;96115.13;4962330;28;20054;-64
2024/03/28 02:03:23;;;;;;;0.50;0.50;;;;;;;10.16;100.00;96044.66;4962684;28;20489;-64
2024/03/28 02:05:50;;;;;;;0.50;0.50;;;;;;;10.60;100.00;96100.53;4962642;28;20057;-64
2024/03/28 02:08:17;;;;;;;0.50;0.50;;;;;;;9.81;100.00;95989.22;4960828;28;20423;-64
2024/03/28 02:10:43;;;;;;;0.50;0.50;;;;;;;10.65;100.00;96105.66;4961777;28;20054;-63
2024/03/28 02:13:09;;;;;;;0.50;0.50;;;;;;;10.65;99.61;96105.66;4961639;28;20066;-64
2024/03/28 02:15:35;;;;;;;0.50;0.50;;;;;;;10.59;99.70;96107.22;4945843;28;20055;-64
2024/03/28 02:18:01;;;;;;;0.50;0.50;;;;;;;10.43;100.00;96130.94;4961448;28;20054;-64
2024/03/28 02:20:26;;;;;;;0.50;0.50;;;;;;;10.47;99.31;96115.91;4961370;28;20050;-64
2024/03/28 02:22:52;;;;;;;0.50;0.50;;;;;;;10.08;99.37;96092.88;4961568;28;20062;-64
2024/03/28 02:25:18;;;;;;;0.50;0.50;;;;;;;10.16;100.00;96138.72;4961721;28;20062;-63
2024/03/28 02:27:44;;;;;;;0.50;0.50;;;;;;;10.11;100.00;96127.25;4961374;28;20051;-64
2024/03/28 02:30:13;;;;;;;0.40;0.40;;;;;;;9.91;100.00;96082.50;4961643;28;20126;-64
2024/03/28 02:32:39;;;;;;;0.50;0.50;;;;;;;9.85;100.00;96064.69;4961253;28;20861;-63
2024/03/28 02:35:06;;;;;;;0.50;0.50;;;;;;;10.02;100.00;96099.91;4961442;28;20059;-64
2024/03/28 02:37:32;;;;;;;0.50;0.50;;;;;;;10.17;100.00;96096.06;4948867;28;20106;-63
2024/03/28 02:39:58;;;;;;;0.50;0.50;;;;;;;9.58;100.00;96021.91;4965736;28;20098;-64
2024/03/28 02:42:24;;;;;;;0.50;0.50;;;;;;;9.81;100.00;96076.91;4965671;28;20145;-64
2024/03/28 02:44:50;;;;;;;0.50;0.50;;;;;;;9.89;100.00;96089.59;4949115;28;20220;-64
2024/03/28 02:47:16;;;;;;;0.50;0.50;;;;;;;10.02;100.00;96079.78;4958306;28;20054;-64
2024/03/28 02:49:41;;;;;;;0.43;0.43;;;;;;;9.81;100.00;96011.34;4968279;28;20485;-65
2024/03/28 02:52:07;;;;;;;0.45;0.45;;;;;;;9.96;100.00;96035.09;4984343;28;20600;-64
2024/03/28 02:54:33;;;;;;;0.50;0.50;;;;;;;9.83;100.00;96022.03;4956275;28;20122;-64
2024/03/28 02:57:04;;;;;;;0.50;0.50;;;;;;;9.93;100.00;96010.19;4952586;28;20055;-64
2024/03/28 02:59:30;;;;;;;0.40;0.40;;;;;;;10.31;100.00;96067.63;4964522;28;20316;-63
2024/03/28 03:01:56;;;;;;;0.45;0.45;;;;;;;10.39;100.00;96070.03;4973332;28;20528;-63
2024/03/28 03:04:23;;;;;;;0.47;0.47;;;;;;;10.26;100.00;96066.03;4983981;28;20053;-63
2024/03/28 03:06:49;;;;;;;0.50;0.50;;;;;;;9.32;100.00;95933.78;4984084;28;20074;-64
2024/03/28 03:09:15;;;;;;;0.50;0.50;;;;;;;9.68;100.00;95968.63;4984373;28;20484;-63
2024/03/28 03:11:42;;;;;;;0.43;0.43;;;;;;;10.20;100.00;96056.53;5000435;28;20065;-64
2024/03/28 03:14:07;;;;;;;0.40;0.40;;;;;;;10.26;100.00;96059.69;4984268;28;20077;-63
2024/03/28 03:16:34;;;;;;;0.50;0.50;;;;;;;10.35;100.00;96069.22;5000720;28;20517;-63
2024/03/28 03:19:01;;;;;;;0.43;0.43;;;;;;;10.36;100.00;96045.91;4984252;28;20580;-63
2024/03/28 03:21:27;;;;;;;0.50;0.50;;;;;;;10.06;100.00;96006.66;5017147;28;20054;-64
2024/03/28 03:24:00;;;;;;;0.50;0.50;;;;;;;10.27;100.00;96023.34;5000317;28;20081;-64
2024/03/28 03:26:30;;;;;;;0.40;0.40;;;;;;;9.58;100.00;95949.28;4983901;28;20081;-63
2024/03/28 03:34:35;;;;;;;0.40;0.40;;;;;;;10.15;100.00;96043.06;4983985;28;20058;-63
2024/03/28 03:37:22;;;;;;;0.50;0.50;;;;;;;10.12;100.00;96038.31;4983372;28;20058;-63
2024/03/28 03:39:54;;;;;;;0.50;0.50;;;;;;;10.16;100.00;96032.81;4991544;28;20046;-63
2024/03/28 03:42:20;;;;;;;0.50;0.50;;;;;;;8.28;100.00;95725.91;4983305;28;20042;-64
2024/03/28 03:44:47;;;;;;;0.40;0.40;;;;;;;10.27;100.00;96028.88;4949441;28;20134;-63
2024/03/28 03:47:13;;;;;;;0.50;0.50;;;;;;;10.23;100.00;96039.16;4963177;28;20054;-64
2024/03/28 03:49:46;;;;;;;0.50;0.50;;;;;;;10.20;100.00;96028.06;4963818;28;20062;-64
2024/03/28 03:52:14;;;;;;;0.50;0.50;;;;;;;10.08;100.00;96032.00;4956525;28;20132;-63
2024/03/28 03:54:41;;;;;;;0.50;0.50;;;;;;;10.10;100.00;96040.69;4983037;28;20061;-63
2024/03/28 03:57:07;;;;;;;0.50;0.50;;;;;;;9.83;100.00;96019.25;4982937;28;20054;-63
2024/03/28 03:59:33;;;;;;;0.50;0.50;;;;;;;9.79;100.00;96046.91;4982385;28;20503;-63
2024/03/28 04:01:59;;;;;;;0.40;0.40;;;;;;;9.74;100.00;96044.50;4998497;28;20046;-65
2024/03/28 04:04:25;;;;;;;0.50;0.50;;;;;;;9.66;100.00;96037.34;4966812;28;20061;-63
2024/03/28 04:06:51;;;;;;;0.40;0.40;;;;;;;9.63;100.00;96038.13;4966814;28;20050;-64
2024/03/28 04:09:17;;;;;;;0.40;0.40;;;;;;;9.39;100.00;95999.34;4967026;28;20119;-64
2024/03/28 04:11:46;;;;;;;0.47;0.47;;;;;;;9.62;100.00;96042.09;4966755;28;20520;-63
2024/03/28 04:14:12;;;;;;;0.50;0.50;;;;;;;9.70;100.00;96057.53;4967851;28;20081;-64
2024/03/28 04:16:37;;;;;;;0.40;0.40;;;;;;;9.76;100.00;96046.88;4983164;28;20513;-64
2024/03/28 04:19:03;;;;;;;0.50;0.50;;;;;;;9.51;100.00;96008.06;4983274;28;20061;-64
2024/03/28 04:21:29;;;;;;;0.50;0.50;;;;;;;9.87;100.00;96051.28;4982528;28;20529;-64
2024/03/28 04:23:58;;;;;;;0.47;0.47;;;;;;;9.94;100.00;96045.75;4982462;28;20054;-64
2024/03/28 04:26:24;;;;;;;0.50;0.50;;;;;;;9.92;100.00;96030.72;4966327;28;20066;-64
2024/03/28 04:28:50;;;;;;;0.40;0.40;;;;;;;9.29;100.00;95945.59;4982987;28;20108;-64
2024/03/28 04:31:16;;;;;;;0.43;0.43;;;;;;;9.99;100.00;96067.50;4981828;28;20065;-64
2024/03/28 04:33:42;;;;;;;0.50;0.50;;;;;;;10.09;100.00;96055.72;4966634;28;20098;-64
2024/03/28 04:36:07;;;;;;;0.50;0.50;;;;;;;10.13;100.00;96056.50;4966145;28;20436;-64
2024/03/28 04:38:35;;;;;;;0.50;0.50;;;;;;;9.72;100.00;95980.50;4982113;28;20407;-64
2024/03/28 04:41:03;;;;;;;0.40;0.40;;;;;;;10.10;100.00;96029.63;4982297;28;20081;-64
2024/03/28 04:43:29;;;;;;;0.50;0.50;;;;;;;10.17;100.00;96035.19;4975315;28;20057;-64
2024/03/28 04:45:55;;;;;;;0.50;0.50;;;;;;;10.30;100.00;96055.78;4979678;28;20235;-64
2024/03/28 04:48:21;;;;;;;0.50;0.50;;;;;;;10.38;100.00;96051.84;4995297;28;20093;-64
2024/03/28 04:50:46;;;;;;;0.40;0.40;;;;;;;9.04;100.00;95840.53;4962952;28;20059;-65
2024/03/28 04:53:12;;;;;;;0.50;0.50;;;;;;;10.08;100.00;96009.88;5012495;28;20078;-64
2024/03/28 04:55:38;;;;;;;0.50;0.50;;;;;;;10.48;100.00;96073.19;4981920;28;20596;-63
2024/03/28 04:58:04;;;;;;;0.40;0.40;;;;;;;10.44;100.00;96077.94;4981130;28;20065;-64
2024/03/28 05:00:30;;;;;;;0.50;0.50;;;;;;;10.05;100.00;96012.59;4981708;28;20058;-64
2024/03/28 05:02:56;;;;;;;0.50;0.50;;;;;;;10.65;100.00;96072.41;4981669;28;20129;-64
2024/03/28 05:05:21;;;;;;;0.50;0.50;;;;;;;10.55;100.00;96070.44;4981928;28;20050;-64
2024/03/28 05:07:47;;;;;;;0.50;0.50;;;;;;;10.15;100.00;95993.28;4965729;28;20054;-65
2024/03/28 05:10:13;;;;;;;0.40;0.40;;;;;;;10.52;100.00;96042.75;4981855;28;20066;-64
2024/03/28 05:12:38;;;;;;;0.50;0.50;;;;;;;10.64;100.00;96070.84;4965234;28;20065;-64
2024/03/28 05:15:06;;;;;;;0.50;0.50;;;;;;;10.53;100.00;96009.13;4982509;28;20269;-63
2024/03/28 05:17:31;;;;;;;0.50;0.50;;;;;;;10.61;100.00;96015.44;4965850;28;20054;-63
2024/03/28 05:19:57;;;;;;;0.50;0.50;;;;;;;11.01;100.00;96039.97;4981905;28;20587;-63
2024/03/28 05:22:25;;;;;;;0.40;0.40;;;;;;;11.09;100.00;96021.34;4981648;28;20066;-64
2024/03/28 05:24:50;;;;;;;0.50;0.50;;;;;;;10.89;100.00;95982.19;4981500;28;20065;-64
2024/03/28 05:27:16;;;;;;;0.50;0.50;;;;;;;11.30;100.00;96054.59;4981500;28;20046;-64
2024/03/28 05:29:43;;;;;;;0.50;0.50;;;;;;;11.32;99.31;96066.06;4982002;28;20116;-64
2024/03/28 05:32:08;;;;;;;0.50;0.50;;;;;;;11.30;99.36;96040.75;4965520;28;20104;-64
2024/03/28 05:34:35;;;;;;;0.50;0.50;;;;;;;11.63;100.00;96070.78;4981687;28;20054;-63
2024/03/28 05:37:01;;;;;;;0.50;0.50;;;;;;;11.70;100.00;96073.53;4981245;28;20054;-65
2024/03/28 05:39:27;;;;;;;0.50;0.50;;;;;;;11.91;100.00;96070.69;4981222;28;20063;-64
2024/03/28 05:41:54;;;;;;;0.50;0.50;;;;;;;12.05;98.99;96078.94;4981363;28;20417;-63
2024/03/28 05:44:20;;;;;;;0.50;0.50;;;;;;;12.05;98.44;96076.19;4951205;28;20058;-64
2024/03/28 05:46:45;;;;;;;0.50;0.50;;;;;;;12.04;98.27;96046.84;4984081;28;20062;-63
2024/03/28 05:49:11;;;;;;;0.50;0.50;;;;;;;11.65;98.97;95974.09;4981616;28;20493;-63
2024/03/28 05:51:37;;;;;;;0.50;0.50;;;;;;;12.35;99.25;96084.75;4981105;28;20054;-64
2024/03/28 05:54:03;;;;;;;0.60;0.60;;;;;;;12.46;97.66;96063.25;4981559;28;20062;-63
2024/03/28 05:56:28;;;;;;;0.50;0.50;;;;;;;12.56;96.69;96095.75;4981119;28;20050;-63
2024/03/28 05:58:54;;;;;;;0.50;0.50;;;;;;;12.76;96.49;96071.78;4980466;28;20613;-63
2024/03/28 06:01:20;;;;;;;0.50;0.50;;;;;;;12.90;95.71;96082.81;4981056;28;20054;-63
2024/03/28 06:03:46;;;;;;;0.50;0.50;;;;;;;13.14;94.72;96092.97;4981058;28;20492;-63
2024/03/28 06:06:11;;;;;;;0.57;0.57;;;;;;;12.55;97.79;96083.03;4964180;28;20054;-64
2024/03/28 06:08:39;;;;;;;0.50;0.50;;;;;;;12.87;96.96;96078.06;4981193;28;20054;-63
2024/03/28 06:11:05;;;;;;;0.60;0.60;;;;;;;13.10;94.75;96086.63;4983675;28;20062;-62
2024/03/28 06:13:32;;;;;;;0.60;0.60;;;;;;;11.31;93.89;95787.28;4985883;28;20445;-63
2024/03/28 06:15:58;;;;;;;0.50;0.50;;;;;;;13.43;94.64;96099.09;4985016;28;20065;-63
2024/03/28 06:18:25;;;;;;;0.60;0.60;;;;;;;13.53;91.67;96098.19;4984860;28;20061;-63
2024/03/28 06:21:04;;;;;;;0.50;0.50;;;;;;;13.45;93.24;96121.72;4968991;28;20396;-63
2024/03/28 06:23:30;;;;;;;0.50;0.50;;;;;;;13.52;93.28;96128.00;4984980;28;20426;-62
2024/03/28 06:26:00;;;;;;;0.60;0.60;;;;;;;13.66;92.46;96127.88;4984710;28;20160;-63
2024/03/28 06:28:26;;;;;;;0.60;0.60;;;;;;;13.84;91.63;96112.97;4979290;28;20549;-61
2024/03/28 06:30:56;;;;;;;0.60;0.60;;;;;;;13.96;91.04;96132.72;4946080;28;20062;-66
2024/03/28 06:33:22;;;;;;;0.60;0.60;;;;;;;14.22;90.81;96147.94;4991349;28;20051;-62
2024/03/28 06:35:49;;;;;;;0.60;0.60;;;;;;;13.52;89.29;96015.91;4964150;28;20051;-65
2024/03/28 06:38:15;;;;;;;0.60;0.60;;;;;;;14.66;86.27;96158.97;4968973;28;20502;-65
2024/03/28 06:40:40;;;;;;;0.60;0.60;;;;;;;14.66;85.45;96153.41;4963857;28;20050;-64
2024/03/28 06:43:06;;;;;;;0.70;0.70;;;;;;;14.67;85.88;96132.66;4971016;28;20046;-63
2024/03/28 06:45:32;;;;;;;0.60;0.60;;;;;;;14.65;85.99;96140.69;4944306;28;20051;-62
2024/03/28 06:47:58;;;;;;;0.70;0.70;;;;;;;13.73;86.34;96000.97;4964352;28;20058;-64
2024/03/28 06:50:24;;;;;;;0.63;0.63;;;;;;;14.75;85.92;96156.47;4952825;28;20047;-62
2024/03/28 06:52:52;;;;;;;0.60;0.60;;;;;;;14.88;85.57;96160.28;5010518;28;20085;-60
2024/03/28 06:55:18;;;;;;;0.60;0.60;;;;;;;14.74;85.20;96138.16;4983539;28;20167;-62
2024/03/28 06:57:44;;;;;;;0.60;0.60;;;;;;;14.80;85.56;96153.22;4983622;28;20062;-62
2024/03/28 07:00:10;;;;;;;0.60;0.60;;;;;;;14.78;86.82;96152.81;4965793;28;20063;-65
2024/03/28 07:02:36;;;;;;;0.70;0.70;;;;;;;14.92;86.77;96149.88;4962671;28;20498;-63
2024/03/28 07:05:02;;;;;;;0.68;0.68;;;;;;;14.99;85.71;96177.63;4964194;28;20073;-66
2024/03/28 07:07:29;;;;;;;0.60;0.60;;;;;;;15.01;85.61;96180.81;4965449;28;20055;-66
2024/03/28 07:09:56;;;;;;;0.60;0.60;;;;;;;15.00;85.75;96173.66;4962901;28;20105;-66
2024/03/28 07:12:22;;;;;;;0.70;0.70;;;;;;;15.35;84.95;96172.34;4965752;28;20228;-63
2024/03/28 07:14:48;;;;;;;0.70;0.70;;;;;;;15.75;83.85;96172.09;4995228;28;20104;-63
2024/03/28 07:17:13;;;;;;;0.70;0.70;;;;;;;15.85;83.07;96159.97;4988358;28;20050;-66
2024/03/28 07:19:40;;;;;;;0.70;0.70;;;;;;;16.06;82.55;96165.13;4960762;28;20121;-65
2024/03/28 07:22:08;;;;;;;0.70;0.70;;;;;;;16.11;81.57;96147.88;4962398;28;20607;-66
2024/03/28 07:24:37;;;;;;;0.70;0.70;;;;;;;16.36;80.42;96155.81;4963258;28;20453;-63
2024/03/28 07:27:03;;;;;;;0.70;0.70;;;;;;;16.24;80.91;96153.63;4951757;28;20046;-61
2024/03/28 07:29:29;;;;;;;0.70;0.70;;;;;;;16.34;80.71;96150.63;4984959;28;20128;-62
2024/03/28 07:31:55;;;;;;;0.70;0.70;;;;;;;16.55;78.83;96133.47;4969141;28;20050;-67
2024/03/28 07:34:21;;;;;;;0.70;0.70;;;;;;;17.03;77.55;96151.59;4983618;28;20058;-65
2024/03/28 07:36:47;;;;;;;0.70;0.70;;;;;;;16.87;75.55;96137.56;4982690;28;20556;-66
2024/03/28 07:39:14;;;;;;;0.70;0.70;;;;;;;17.20;75.56;96150.44;4983194;28;20101;-62
2024/03/28 07:41:41;;;;;;;0.70;0.70;;;;;;;17.22;74.83;96123.56;4981265;28;20506;-63
2024/03/28 07:44:07;;;;;;;0.70;0.70;;;;;;;17.03;73.12;96087.25;4983764;28;20425;-64
2024/03/28 07:46:33;;;;;;;0.80;0.80;;;;;;;17.41;73.59;96133.13;4967151;28;20536;-62
2024/03/28 07:48:59;;;;;;;0.70;0.70;;;;;;;17.60;71.95;96118.28;4965892;28;20137;-70
2024/03/28 07:51:25;;;;;;;0.80;0.80;;;;;;;17.89;71.41;96130.34;4949504;28;20058;-62
2024/03/28 07:53:52;;;;;;;0.70;0.70;;;;;;;18.08;71.40;96115.41;4982726;28;20407;-61
2024/03/28 07:56:19;;;;;;;0.80;0.80;;;;;;;18.13;70.40;96077.63;4979856;28;20067;-61
2024/03/28 07:58:45;;;;;;;0.70;0.70;;;;;;;18.89;69.68;96113.88;4966161;28;20066;-60
2024/03/28 08:01:11;;;;;;;0.80;0.80;;;;;;;18.69;68.88;96116.09;4976319;28;20042;-63
2024/03/28 08:03:38;;;;;;;0.70;0.70;;;;;;;19.31;67.18;96129.44;4970310;28;20066;-64
2024/03/28 08:06:10;;;;;;;0.80;0.80;;;;;;;18.94;66.73;96109.72;4962757;28;20062;-62
2024/03/28 08:08:37;;;;;;;0.80;0.80;;;;;;;19.38;66.43;96162.91;4962932;28;20050;-61
2024/03/28 08:11:04;;;;;;;0.80;0.80;;;;;;;18.60;68.31;96130.00;4950301;28;20062;-62
2024/03/28 08:13:33;;;;;;;0.70;0.70;;;;;;;17.67;69.67;96064.88;4977173;28;20050;-64
2024/03/28 08:15:59;;;;;;;0.73;0.73;;;;;;;18.71;68.92;96175.34;4946570;28;20400;-66
2024/03/28 08:18:25;;;;;;;0.77;0.77;;;;;;;18.88;68.28;96188.06;4952893;28;20051;-64
2024/03/28 08:20:51;;;;;;;0.70;0.70;;;;;;;18.04;70.08;96109.09;4948148;28;20450;-62
2024/03/28 08:23:18;;;;;;;0.70;0.70;;;;;;;18.54;70.39;96173.81;4962138;28;20055;-64
2024/03/28 08:25:44;;;;;;;0.80;0.80;;;;;;;18.31;70.67;96174.03;4962833;28;20071;-61
2024/03/28 08:28:10;;;;;;;0.70;0.70;;;;;;;17.79;72.64;96159.41;4951291;28;20592;-63
2024/03/28 08:30:37;;;;;;;0.75;0.75;;;;;;;18.47;70.96;96185.25;4962602;28;20077;-62
2024/03/28 08:33:03;;;;;;;0.75;0.75;;;;;;;18.16;69.19;96160.84;4961104;28;20054;-65
2024/03/28 08:35:39;;;;;;;0.77;0.77;;;;;;;17.23;74.16;96247.53;4959486;28;20463;-66
2024/03/28 08:38:05;;;;;;;0.70;0.70;;;;;;;16.67;74.65;96078.09;4975320;28;20308;-64
2024/03/28 08:40:30;;;;;;;0.70;0.70;;;;;;;17.21;74.31;96210.78;4950917;28;20055;-63
2024/03/28 08:42:56;;;;;;;0.70;0.70;;;;;;;17.05;74.13;96189.13;4955810;28;20062;-61
2024/03/28 08:45:22;;;;;;;0.70;0.70;;;;;;;17.54;73.76;96212.44;4981769;28;20591;-62
2024/03/28 08:47:48;;;;;;;0.70;0.70;;;;;;;17.77;72.80;96195.47;4965399;28;20093;-64
2024/03/28 08:50:13;;;;;;;0.80;0.80;;;;;;;18.33;71.47;96196.81;4964726;28;20073;-66
2024/03/28 08:52:39;;;;;;;0.70;0.70;;;;;;;18.80;68.46;96188.72;4981065;28;20088;-63
2024/03/28 08:55:09;;;;;;;0.70;0.70;;;;;;;18.54;67.64;96210.28;4993901;28;20366;-68
2024/03/28 08:57:40;;;;;;;0.70;0.70;;;;;;;17.87;66.71;96093.56;4973914;28;20584;-62
2024/03/28 09:00:14;;;;;;;0.80;0.80;;;;;;;18.67;65.23;96163.44;4965357;28;20498;-62
2024/03/28 09:02:41;;;;;;;0.70;0.70;;;;;;;18.88;64.66;96202.13;4981075;28;20077;-63
2024/03/28 09:05:09;;;;;;;0.70;0.70;;;;;;;18.86;64.06;96226.22;4965271;28;20422;-64
2024/03/28 09:07:35;;;;;;;0.80;0.80;;;;;;;19.27;63.70;96190.50;4978173;28;20096;-61
2024/03/28 09:10:05;;;;;;;0.80;0.80;;;;;;;19.58;61.91;96155.03;4992191;28;20054;-63
2024/03/28 09:12:41;;;;;;;0.90;0.90;;;;;;;19.63;61.41;96133.22;4971730;28;20053;-62
2024/03/28 09:15:08;;;;;;;0.70;0.70;;;;;;;20.06;59.95;96176.31;5011190;28;20054;-62
2024/03/28 09:17:35;;;;;;;0.77;0.77;;;;;;;19.72;59.59;96184.72;4968119;28;20140;-61
2024/03/28 09:20:01;;;;;;;0.80;0.80;;;;;;;20.09;58.80;96195.09;4981735;28;20050;-62
2024/03/28 09:22:27;;;;;;;0.80;0.80;;;;;;;18.93;58.75;96131.41;4964633;28;21412;-64
2024/03/28 09:24:52;;;;;;;0.70;0.70;;;;;;;18.33;58.95;95941.66;4983749;28;20588;-61
2024/03/28 09:27:18;;;;;;;0.90;0.90;;;;;;;20.12;58.73;96211.06;4981382;28;20058;-60
2024/03/28 09:29:45;;;;;;;1.00;1.00;;;;;;;20.41;58.26;96200.44;4980805;28;20050;-60
2024/03/28 09:32:12;;;;;;;0.80;0.80;;;;;;;20.80;57.04;96211.09;4980485;28;20050;-62
2024/03/28 09:34:38;;;;;;;1.00;1.00;;;;;;;20.92;56.61;96181.31;4981009;28;20058;-63
2024/03/28 09:37:05;;;;;;;0.90;0.90;;;;;;;21.15;55.96;96194.19;4980846;28;20053;-60
2024/03/28 09:39:31;;;;;;;0.90;0.90;;;;;;;21.03;56.40;96187.38;4980670;28;20537;-63
2024/03/28 09:42:00;;;;;;;0.90;0.90;;;;;;;21.04;55.00;96191.75;4980594;28;20057;-64
2024/03/28 09:44:25;;;;;;;0.90;0.90;;;;;;;20.35;57.13;96122.72;4980775;28;20050;-60
2024/03/28 09:46:52;;;;;;;0.90;0.90;;;;;;;20.94;56.74;96170.38;4981091;28;20149;-59
2024/03/28 09:49:21;;;;;;;0.90;0.90;;;;;;;21.44;56.20;96192.63;4981256;28;20046;-63
2024/03/28 09:51:51;;;;;;;0.85;0.85;;;;;;;20.61;56.58;96197.34;4980808;28;20480;-59
2024/03/28 09:54:18;;;;;;;0.80;0.80;;;;;;;19.43;58.38;96086.50;4997472;28;20058;-63
2024/03/28 09:56:44;;;;;;;0.90;0.90;;;;;;;20.70;57.74;96219.94;4981172;28;20050;-62
2024/03/28 09:59:10;;;;;;;0.80;0.80;;;;;;;21.17;55.81;96206.53;4980986;28;20074;-63
2024/03/28 10:01:39;;;;;;;0.90;0.90;;;;;;;21.68;54.97;96196.50;4981036;28;20070;-61
2024/03/28 10:04:15;;;;;;;0.82;0.82;;;;;;;21.45;53.48;96092.72;4997901;28;20379;-58
2024/03/28 10:06:53;;;;;;;0.90;0.90;;;;;;;22.42;53.12;96177.28;4980597;28;20061;-62
2024/03/28 10:09:19;;;;;;;1.00;1.00;;;;;;;22.51;51.52;96184.19;4981441;28;20046;-62
2024/03/28 10:11:45;;;;;;;0.95;0.95;;;;;;;22.76;51.60;96181.09;4980110;28;20054;-60
2024/03/28 10:14:22;;;;;;;0.95;0.95;;;;;;;23.10;50.29;96181.53;4980400;28;20121;-59
2024/03/28 10:16:49;;;;;;;1.02;1.02;;;;;;;22.70;51.40;96180.16;4980669;28;20089;-60
2024/03/28 10:19:19;;;;;;;1.00;1.00;;;;;;;22.91;50.50;96176.34;4980541;28;20412;-58
2024/03/28 10:21:45;;;;;;;1.20;1.20;;;;;;;23.35;50.18;96174.75;4976972;28;20053;-61
2024/03/28 10:24:16;;;;;;;1.10;1.10;;;;;;;22.93;50.50;96194.41;4967030;28;20164;-64
2024/03/28 10:26:42;;;;;;;1.10;1.10;;;;;;;23.37;49.81;96200.50;4980333;28;20062;-58
2024/03/28 10:29:16;;;;;;;1.10;1.10;;;;;;;22.78;48.81;96164.47;4964286;28;20129;-63
2024/03/28 10:31:42;;;;;;;1.10;1.10;;;;;;;22.24;50.40;96193.41;4980712;28;20429;-62
2024/03/28 10:34:15;;;;;;;1.10;1.10;;;;;;;22.43;49.08;96187.31;4980753;28;20062;-63
2024/03/28 10:36:41;;;;;;;1.00;1.00;;;;;;;22.29;49.56;96192.78;4980073;28;20061;-63
2024/03/28 10:39:09;;;;;;;1.10;1.10;;;;;;;22.32;50.39;96189.81;4980748;28;20062;-63
2024/03/28 10:41:35;;;;;;;0.90;0.90;;;;;;;22.44;50.10;96191.72;4979858;28;20062;-58
2024/03/28 10:44:01;;;;;;;1.13;1.13;;;;;;;;;;4970644;28;20057;-58
2024/03/28 10:46:29;;;;;;;1.15;1.15;;;;;;;22.62;49.05;96185.31;4996088;28;20054;-61
2024/03/28 10:49:05;;;;;;;0.90;0.90;;;;;;;22.79;48.55;96177.31;4980564;28;20070;-58
2024/03/28 10:51:43;;;;;;;1.10;1.10;;;;;;;23.17;48.30;96191.72;4979233;28;20589;-63
2024/03/28 10:54:33;;;;;;;1.10;1.10;;;;;;;23.46;47.53;96180.66;4963280;28;20046;-59
2024/03/28 10:57:04;;;;;;;1.20;1.20;;;;;;;23.62;46.53;96141.50;4979832;28;20058;-63
2024/03/28 10:59:32;;;;;;;1.15;1.15;;;;;;;23.72;45.86;96137.41;4982345;28;20063;-62
2024/03/28 11:01:59;;;;;;;1.20;1.20;;;;;;;23.27;45.33;96083.84;4981259;28;20556;-62
2024/03/28 11:04:25;;;;;;;1.13;1.13;;;;;;;23.98;46.03;96171.69;4982377;28;20043;-62
2024/03/28 11:06:54;;;;;;;1.10;1.10;;;;;;;24.12;44.96;96176.66;4982961;28;20645;-61
2024/03/28 11:09:23;;;;;;;1.40;1.40;;;;;;;24.27;45.11;96182.38;4966914;28;20050;-60
2024/03/28 11:11:52;;;;;;;1.27;1.27;;;;;;;24.38;44.66;96171.28;4983339;28;20057;-63
2024/03/28 11:14:18;;;;;;;1.20;1.20;;;;;;;24.43;44.42;96151.59;4984259;28;20058;-60
2024/03/28 11:16:44;;;;;;;1.25;1.25;;;;;;;24.73;43.33;96181.63;4967910;28;20058;-59
2024/03/28 11:19:10;;;;;;;1.30;1.30;;;;;;;24.61;43.90;96179.78;4983592;28;20062;-62
2024/03/28 11:21:36;;;;;;;1.20;1.20;;;;;;;24.13;41.46;96178.22;4982831;28;20046;-59
2024/03/28 11:24:02;;;;;;;1.13;1.13;;;;;;;23.83;39.37;96102.91;4983551;28;20054;-59
2024/03/28 11:26:28;;;;;;;1.20;1.20;;;;;;;24.57;39.96;96162.19;4999761;28;21075;-64
2024/03/28 11:29:01;;;;;;;1.20;1.20;;;;;;;24.70;38.14;96148.59;4983683;28;20073;-59
2024/03/28 11:31:27;;;;;;;1.25;1.25;;;;;;;24.41;39.29;96165.47;4982557;28;20058;-63
2024/03/28 11:34:06;;;;;;;1.30;1.30;;;;;;;24.64;39.49;96161.03;4982820;28;20061;-62
2024/03/28 11:36:33;;;;;;;1.20;1.20;;;;;;;24.29;43.12;96163.66;4983805;28;20054;-61